Time;durP1;ratioP1;P1;durP2;ratioP2;P2;SDS_P1;SDS_P2;PMS_P1;PMS_P2;Temp;Humidity;BMP_temperature;BMP_pressure;BME280_temperature;BME280_humidity;BME280_pressure;Samples;Min_cycle;Max_cycle;Signal;HPM_P1;HPM_P2
2022/12/19 00:01:35;;;;;;;11.32;8.68;;;;;;;11.66;48.34;101609.59;4973918;28;20031;-64
2022/12/19 00:04:04;;;;;;;12.40;9.25;;;;;;;11.46;49.12;101617.47;4974295;28;20042;-64
2022/12/19 00:06:31;;;;;;;13.75;9.05;;;;;;;11.77;48.22;101611.72;4974396;28;20022;-64
2022/12/19 00:08:59;;;;;;;13.38;9.63;;;;;;;11.68;48.53;101611.06;4973957;28;20496;-64
2022/12/19 00:11:27;;;;;;;14.18;10.20;;;;;;;11.37;49.71;101609.56;4974385;28;20361;-64
2022/12/19 00:13:53;;;;;;;14.05;9.48;;;;;;;11.51;49.47;101609.69;4973780;28;20479;-64
2022/12/19 00:16:22;;;;;;;13.77;9.07;;;;;;;11.34;50.15;101617.19;4974137;28;20469;-64
2022/12/19 00:18:50;;;;;;;11.73;9.35;;;;;;;11.27;50.02;101614.44;4973730;28;20105;-64
2022/12/19 00:21:19;;;;;;;12.85;9.18;;;;;;;11.28;50.10;101621.44;4973993;28;20026;-64
2022/12/19 00:23:45;;;;;;;13.18;9.73;;;;;;;11.02;50.81;101631.88;4973851;28;20023;-64
2022/12/19 00:26:16;;;;;;;14.35;9.63;;;;;;;11.14;50.76;101634.91;4974102;28;20058;-64
2022/12/19 00:28:46;;;;;;;12.40;10.02;;;;;;;10.87;51.22;101650.66;4973298;28;20031;-64
2022/12/19 00:31:13;;;;;;;16.77;11.18;;;;;;;10.94;51.46;101646.25;4973782;28;20480;-64
2022/12/19 00:33:39;;;;;;;14.10;10.02;;;;;;;10.63;52.46;101656.34;4973836;28;20031;-64
2022/12/19 00:36:09;;;;;;;15.88;11.40;;;;;;;10.39;53.45;101654.81;4973472;28;20074;-64
2022/12/19 00:38:36;;;;;;;16.27;11.60;;;;;;;10.35;53.76;101667.72;4972980;28;20521;-65
2022/12/19 00:41:25;;;;;;;17.67;12.05;;;;;;;10.54;53.48;101667.13;4956511;28;20384;-63
2022/12/19 00:43:53;;;;;;;16.92;12.00;;;;;;;10.40;54.19;101665.31;4973869;28;20093;-64
2022/12/19 00:46:20;;;;;;;14.00;11.70;;;;;;;10.27;54.73;101660.63;4973848;28;20031;-64
2022/12/19 00:48:47;;;;;;;17.27;12.68;;;;;;;10.19;55.10;101665.19;4973672;28;20027;-60
2022/12/19 00:51:16;;;;;;;16.05;12.68;;;;;;;10.27;55.20;101663.28;4973670;28;20031;-61
2022/12/19 00:53:44;;;;;;;17.73;13.52;;;;;;;9.96;56.21;101667.91;4973547;28;20038;-64
2022/12/19 00:56:16;;;;;;;20.65;14.98;;;;;;;10.15;55.88;101661.19;4973777;28;20034;-66
2022/12/19 00:58:43;;;;;;;19.38;14.20;;;;;;;9.87;56.76;101664.47;4960225;28;20023;-66
2022/12/19 01:01:13;;;;;;;25.35;16.15;;;;;;;9.51;57.55;101665.13;4973118;28;20085;-65
2022/12/19 01:03:40;;;;;;;21.17;14.73;;;;;;;9.78;57.14;101662.91;4973399;28;20027;-65
2022/12/19 01:06:07;;;;;;;22.85;15.50;;;;;;;9.25;57.99;101667.31;4973388;28;20027;-65
2022/12/19 01:08:34;;;;;;;24.20;15.15;;;;;;;9.46;57.63;101667.50;4973245;28;20038;-65
2022/12/19 01:11:00;;;;;;;20.65;15.05;;;;;;;9.42;57.23;101665.34;4972946;28;20031;-65
2022/12/19 01:13:29;;;;;;;18.98;14.20;;;;;;;9.68;56.43;101663.16;4973179;28;20027;-65
2022/12/19 01:16:00;;;;;;;19.13;13.18;;;;;;;9.53;56.31;101657.75;4970162;28;20105;-67
2022/12/19 01:18:26;;;;;;;16.70;12.68;;;;;;;9.79;55.35;101661.88;4972382;28;20539;-65
2022/12/19 01:20:53;;;;;;;15.80;11.63;;;;;;;9.71;55.00;101667.28;4954413;28;20113;-65
2022/12/19 01:23:19;;;;;;;17.33;11.88;;;;;;;9.83;54.34;101667.69;4974055;28;20114;-65
2022/12/19 01:25:52;;;;;;;15.95;11.13;;;;;;;9.76;54.37;101686.28;4972901;28;20070;-65
2022/12/19 01:28:19;;;;;;;14.35;10.57;;;;;;;9.46;54.49;101691.53;4955810;28;20439;-66
2022/12/19 01:30:45;;;;;;;12.80;10.00;;;;;;;9.29;55.04;101699.84;4968403;28;20502;-67
2022/12/19 01:33:13;;;;;;;14.13;10.93;;;;;;;9.47;54.57;101703.06;4953863;29;20065;-67
2022/12/19 01:35:40;;;;;;;14.93;11.57;;;;;;;9.37;55.75;101699.78;4974608;28;20027;-68
2022/12/19 01:38:06;;;;;;;16.65;10.68;;;;;;;9.01;55.85;101700.34;4955811;28;20051;-70
2022/12/19 01:40:33;;;;;;;13.25;9.88;;;;;;;9.17;54.65;101684.22;4973567;28;20505;-70
2022/12/19 01:43:01;;;;;;;11.63;8.73;;;;;;;9.16;54.31;101681.72;4958092;28;20024;-67
2022/12/19 01:45:32;;;;;;;9.50;8.00;;;;;;;9.20;54.51;101688.38;4952914;28;20117;-66
2022/12/19 01:48:30;;;;;;;10.73;8.18;;;;;;;9.28;54.26;101668.81;4969552;28;20031;-65
2022/12/19 01:51:00;;;;;;;15.02;9.30;;;;;;;9.30;54.02;101659.59;4950116;28;20030;-66
2022/12/19 01:53:30;;;;;;;9.93;8.10;;;;;;;8.58;55.39;101645.63;4959846;28;20034;-66
2022/12/19 01:55:57;;;;;;;11.82;7.95;;;;;;;8.32;56.54;101635.19;4959810;28;20023;-71
2022/12/19 01:58:24;;;;;;;9.75;7.82;;;;;;;8.69;55.29;101646.09;4974355;28;20551;-71
2022/12/19 02:00:50;;;;;;;11.75;7.82;;;;;;;8.46;55.56;101640.69;4959706;28;20027;-71
2022/12/19 02:03:24;;;;;;;11.85;7.47;;;;;;;8.58;55.07;101642.97;4956367;29;20078;-71
2022/12/19 02:05:52;;;;;;;9.70;7.35;;;;;;;8.51;54.97;101629.50;4940392;29;20031;-71
2022/12/19 02:08:20;;;;;;;8.45;6.88;;;;;;;8.37;55.42;101628.38;4966648;28;20031;-71
2022/12/19 02:10:46;;;;;;;11.00;7.13;;;;;;;8.09;55.97;101625.25;4976434;28;20098;-71
2022/12/19 02:13:13;;;;;;;11.40;8.65;;;;;;;8.07;56.23;101627.25;4976673;28;20029;-71
2022/12/19 02:16:23;;;;;;;10.68;7.97;;;;;;;8.49;54.92;101636.00;4976621;28;20027;-71
2022/12/19 02:19:17;;;;;;;50.10;24.92;;;;;;;8.65;55.19;101655.44;4976469;28;20492;-71
2022/12/19 02:22:05;;;;;;;22.13;14.07;;;;;;;8.58;56.20;101646.47;4976507;28;20023;-71
2022/12/19 02:25:10;;;;;;;20.98;13.23;;;;;;;8.36;56.90;101649.88;4976283;28;20077;-71
2022/12/19 02:28:16;;;;;;;18.47;11.17;;;;;;;8.24;57.51;101649.38;4976598;28;20023;-72
2022/12/19 02:30:55;;;;;;;14.73;10.95;;;;;;;8.35;57.62;101645.53;4975863;28;20336;-72
2022/12/19 02:34:00;;;;;;;17.90;12.35;;;;;;;8.59;57.57;101663.31;4969471;28;20027;-72
2022/12/19 02:36:37;;;;;;;15.90;13.18;;;;;;;8.50;57.83;101659.84;4888404;29;20470;-72
2022/12/19 02:39:09;;;;;;;24.08;15.23;;;;;;;8.21;58.54;101655.03;4956244;28;20106;-72
2022/12/19 02:41:45;;;;;;;20.00;14.13;;;;;;;8.04;58.80;101662.25;4960323;28;20031;-72
2022/12/19 02:44:28;;;;;;;19.25;13.95;;;;;;;8.32;58.86;101672.53;4975968;28;20023;-72
2022/12/19 02:46:57;;;;;;;16.95;12.30;;;;;;;8.00;59.47;101689.44;4975856;28;20112;-72
2022/12/19 02:49:24;;;;;;;18.52;12.63;;;;;;;7.90;59.78;101694.94;4975564;28;20027;-72
2022/12/19 02:51:50;;;;;;;15.15;11.75;;;;;;;8.13;59.36;101695.06;4964213;28;20055;-72
2022/12/19 02:54:17;;;;;;;18.27;11.10;;;;;;;7.81;59.88;101694.09;4956668;29;20031;-72
2022/12/19 02:57:06;;;;;;;15.05;10.45;;;;;;;7.85;60.11;101692.78;4956271;29;20035;-72
2022/12/19 02:59:56;;;;;;;12.85;10.45;;;;;;;7.73;60.03;101710.09;4966901;28;20102;-71
2022/12/19 03:03:04;;;;;;;14.32;10.73;;;;;;;7.62;60.18;101721.91;4975657;28;20022;-70
2022/12/19 03:06:04;;;;;;;14.35;10.10;;;;;;;7.73;59.35;101730.59;4934207;29;20078;-70
2022/12/19 03:08:41;;;;;;;12.48;9.90;;;;;;;7.62;59.82;101743.22;4884489;29;20052;-70
2022/12/19 03:11:12;;;;;;;17.42;10.15;;;;;;;7.51;60.22;101748.88;4934574;29;20072;-73
2022/12/19 03:13:49;;;;;;;14.50;10.73;;;;;;;7.45;60.50;101762.03;4934756;29;20047;-70
2022/12/19 03:16:15;;;;;;;14.85;10.45;;;;;;;7.38;60.68;101756.47;4934615;29;20477;-71
2022/12/19 03:18:42;;;;;;;16.38;10.38;;;;;;;7.33;60.82;101766.81;4934305;29;20039;-71
2022/12/19 03:21:24;;;;;;;14.48;10.60;;;;;;;7.28;60.92;101771.78;4934473;29;20035;-70
2022/12/19 03:23:53;;;;;;;13.05;10.38;;;;;;;7.30;61.32;101769.78;4934631;29;20094;-71
2022/12/19 03:26:22;;;;;;;17.50;11.98;;;;;;;7.52;61.50;101777.19;4933580;29;20159;-71
2022/12/19 03:29:21;;;;;;;17.00;12.45;;;;;;;7.72;61.55;101798.19;4928492;29;20122;-71
2022/12/19 03:31:48;;;;;;;14.80;10.70;;;;;;;7.14;62.70;101800.69;4893005;29;20044;-72
2022/12/19 03:34:30;;;;;;;16.02;12.23;;;;;;;7.20;63.42;101809.84;4918756;29;20389;-72
2022/12/19 03:37:00;;;;;;;17.42;12.32;;;;;;;7.26;63.54;101813.72;4957021;28;20051;-72
2022/12/19 03:39:29;;;;;;;16.88;13.50;;;;;;;7.40;63.01;101813.09;4973984;28;20082;-72
2022/12/19 03:44:43;;;;;;;20.42;13.65;;;;;;;7.12;64.02;101823.16;4974994;28;20054;-72
2022/12/19 03:47:27;;;;;;;22.05;13.63;;;;;;;7.02;64.71;101823.25;4974072;28;20061;-72
2022/12/19 03:49:53;;;;;;;25.98;14.00;;;;;;;6.61;66.38;101825.69;4972093;28;20030;-72
2022/12/19 03:52:40;;;;;;;25.83;15.82;;;;;;;6.50;66.67;101833.91;4973840;28;20383;-72
2022/12/19 03:55:30;;;;;;;23.10;15.32;;;;;;;6.67;66.79;101832.22;4972680;28;20031;-72
2022/12/19 03:58:02;;;;;;;25.10;17.02;;;;;;;6.51;67.31;101822.28;4974633;28;20035;-72
2022/12/19 04:00:31;;;;;;;21.88;15.63;;;;;;;6.12;68.63;101818.31;4973975;28;20029;-72
2022/12/19 04:02:58;;;;;;;24.42;16.70;;;;;;;6.12;68.63;101815.66;4974531;28;20045;-72
2022/12/19 04:05:27;;;;;;;21.45;16.17;;;;;;;5.90;69.53;101814.25;4974312;28;20038;-72
2022/12/19 04:07:59;;;;;;;23.85;16.45;;;;;;;5.99;69.64;101818.69;4974253;28;20027;-72
2022/12/19 04:10:27;;;;;;;27.02;17.73;;;;;;;5.86;70.38;101819.03;4974053;28;20051;-72
2022/12/19 04:13:04;;;;;;;22.70;15.93;;;;;;;5.83;70.62;101829.97;4973271;28;20019;-72
2022/12/19 04:15:43;;;;;;;25.92;17.77;;;;;;;5.51;71.73;101831.28;4974192;28;20019;-72
2022/12/19 04:18:12;;;;;;;23.98;17.05;;;;;;;5.53;72.13;101839.94;4974109;28;20026;-72
2022/12/19 04:20:44;;;;;;;27.92;17.42;;;;;;;5.64;71.47;101838.88;4973728;28;20038;-72
2022/12/19 04:23:21;;;;;;;24.13;17.42;;;;;;;5.82;70.90;101834.44;4973781;28;20441;-72
2022/12/19 04:25:53;;;;;;;25.27;17.27;;;;;;;5.90;70.46;101831.03;4954586;29;20502;-72
2022/12/19 04:28:29;;;;;;;23.17;16.25;;;;;;;5.91;69.93;101832.72;4965407;28;20027;-73
2022/12/19 04:30:55;;;;;;;;;;;;;;;6.15;69.27;101828.63;4974467;28;20062;-73
2022/12/19 04:33:21;;;;;;;26.35;16.92;;;;;;;5.90;69.42;101840.84;4973875;28;19961;-72
2022/12/19 04:35:48;;;;;;;25.70;17.95;;;;;;;5.99;69.51;101829.31;4973733;28;20114;-72
2022/12/19 04:38:14;;;;;;;34.53;22.02;;;;;;;5.99;69.24;101827.47;4973628;28;20050;-72
2022/12/19 04:40:40;;;;;;;29.90;19.70;;;;;;;5.70;70.20;101832.97;4968484;28;20059;-72
2022/12/19 04:43:07;;;;;;;41.72;23.63;;;;;;;5.62;70.51;101835.56;4961332;28;20086;-72
2022/12/19 04:45:34;;;;;;;36.70;21.13;;;;;;;5.44;71.32;101832.00;4959942;28;20039;-72
2022/12/19 04:48:00;;;;;;;35.63;22.48;;;;;;;5.71;70.46;101826.69;4970483;28;20055;-72
2022/12/19 04:50:26;;;;;;;42.25;26.35;;;;;;;5.49;71.57;101835.88;4973159;28;20026;-72
2022/12/19 04:52:52;;;;;;;47.72;26.33;;;;;;;5.28;71.90;101836.16;4973449;28;20055;-72
2022/12/19 04:55:18;;;;;;;41.17;24.98;;;;;;;5.29;72.42;101840.47;4973267;28;20121;-72
2022/12/19 04:57:45;;;;;;;44.70;25.75;;;;;;;4.93;73.49;101836.84;4972861;28;20038;-72
2022/12/19 05:00:11;;;;;;;42.33;25.42;;;;;;;4.89;74.09;101835.47;4973220;28;20027;-72
2022/12/19 05:02:38;;;;;;;41.13;25.17;;;;;;;5.12;73.53;101848.38;4973295;28;20035;-73
2022/12/19 05:05:04;;;;;;;45.67;23.58;;;;;;;4.91;74.02;101848.59;4973463;28;20062;-72
2022/12/19 05:07:31;;;;;;;40.90;24.27;;;;;;;5.01;74.03;101850.22;4973301;28;20082;-72
2022/12/19 05:09:58;;;;;;;33.25;22.20;;;;;;;4.90;74.05;101854.88;4973041;28;20113;-72
2022/12/19 05:12:24;;;;;;;37.45;20.42;;;;;;;4.81;74.53;101855.72;4973029;28;20070;-72
2022/12/19 05:14:51;;;;;;;28.85;19.20;;;;;;;4.68;75.14;101858.69;4973072;28;20030;-72
2022/12/19 05:17:17;;;;;;;32.33;21.13;;;;;;;4.68;75.00;101859.53;4972961;28;20508;-72
2022/12/19 05:19:43;;;;;;;30.90;20.77;;;;;;;4.64;75.41;101867.91;4972802;28;20073;-72
2022/12/19 05:22:09;;;;;;;38.38;22.98;;;;;;;4.46;76.46;101865.97;4973164;28;20043;-72
2022/12/19 05:24:35;;;;;;;39.08;23.02;;;;;;;4.42;76.46;101871.69;4973348;28;20109;-72
2022/12/19 05:27:02;;;;;;;37.55;23.83;;;;;;;4.30;77.17;101878.97;4972248;28;20090;-72
2022/12/19 05:29:28;;;;;;;38.80;23.02;;;;;;;4.29;77.34;101885.25;4953605;29;20102;-72
2022/12/19 05:31:54;;;;;;;40.22;24.25;;;;;;;4.42;77.03;101883.13;4959715;28;20026;-72
2022/12/19 05:34:21;;;;;;;41.97;24.33;;;;;;;4.39;77.24;101890.56;4973017;28;20037;-72
2022/12/19 05:36:47;;;;;;;43.95;24.83;;;;;;;4.04;78.39;101891.06;4972681;28;20086;-73
2022/12/19 05:39:13;;;;;;;47.50;25.90;;;;;;;4.02;78.66;101893.03;4973158;28;20069;-72
2022/12/19 05:41:39;;;;;;;42.92;25.63;;;;;;;4.27;77.88;101892.47;4972959;28;20089;-72
2022/12/19 05:44:05;;;;;;;39.65;24.13;;;;;;;4.19;77.46;101902.94;4972679;28;20030;-67
2022/12/19 05:46:32;;;;;;;40.42;24.95;;;;;;;4.30;77.03;101902.81;4972991;28;20387;-73
2022/12/19 05:48:58;;;;;;;52.50;27.92;;;;;;;4.27;77.05;101913.69;4971788;28;20041;-73
2022/12/19 05:51:24;;;;;;;49.20;27.27;;;;;;;4.26;77.38;101916.47;4971645;28;20038;-73
2022/12/19 05:53:51;;;;;;;51.17;28.60;;;;;;;4.29;77.39;101910.91;4972509;28;20102;-73
2022/12/19 05:56:20;;;;;;;53.05;29.77;;;;;;;4.28;77.36;101918.03;4971883;28;20035;-73
2022/12/19 05:58:46;;;;;;;54.83;30.33;;;;;;;4.14;78.00;101921.06;4972090;28;20022;-73
2022/12/19 06:01:18;;;;;;;54.03;29.42;;;;;;;4.21;77.87;101928.31;4972813;28;20480;-73
2022/12/19 06:03:45;;;;;;;48.80;28.48;;;;;;;4.05;78.14;101920.06;4957470;28;20062;-74
2022/12/19 06:06:14;;;;;;;50.08;29.10;;;;;;;4.23;77.48;101923.75;4962016;28;20027;-73
2022/12/19 06:08:40;;;;;;;42.65;26.17;;;;;;;4.08;77.68;101919.81;4972474;28;20015;-73
2022/12/19 06:11:08;;;;;;;44.47;25.35;;;;;;;4.18;77.37;101925.13;4973026;28;20089;-74
2022/12/19 06:13:36;;;;;;;41.47;24.42;;;;;;;4.40;76.10;101921.38;4972595;28;20027;-74
2022/12/19 06:16:06;;;;;;;40.25;24.20;;;;;;;4.51;75.21;101923.91;4972561;28;20027;-74
2022/12/19 06:18:33;;;;;;;35.47;21.63;;;;;;;4.47;75.30;101928.63;4972445;28;20031;-75
2022/12/19 06:21:01;;;;;;;35.50;21.33;;;;;;;4.37;75.59;101933.09;4972701;28;20050;-75
2022/12/19 06:23:32;;;;;;;37.42;21.58;;;;;;;4.39;75.45;101932.97;4972681;28;20046;-74
2022/12/19 06:26:00;;;;;;;31.48;20.85;;;;;;;4.43;74.91;101942.28;4958142;28;20035;-74
2022/12/19 06:28:28;;;;;;;33.30;19.77;;;;;;;4.48;74.58;101948.84;4965134;28;20081;-75
2022/12/19 06:30:55;;;;;;;39.58;23.30;;;;;;;4.58;74.20;101937.44;4972602;28;20027;-74
2022/12/19 06:33:22;;;;;;;36.15;22.08;;;;;;;4.80;72.85;101936.28;4972446;28;20026;-73
2022/12/19 06:35:56;;;;;;;33.72;20.30;;;;;;;4.83;72.77;101934.22;4974237;28;20031;-73
2022/12/19 06:38:22;;;;;;;37.78;22.85;;;;;;;4.93;72.44;101940.31;4975756;28;20218;-73
2022/12/19 06:43:33;;;;;;;43.58;26.23;;;;;;;4.69;73.31;101937.28;4976211;28;20081;-74
2022/12/19 06:45:59;;;;;;;41.92;26.42;;;;;;;4.63;74.32;101940.50;4976288;28;20439;-73
2022/12/19 06:48:27;;;;;;;52.85;29.38;;;;;;;4.58;74.92;101937.44;4975705;28;20027;-73
2022/12/19 06:50:53;;;;;;;49.55;28.40;;;;;;;4.31;75.92;101944.25;4975842;28;20054;-74
2022/12/19 06:53:20;;;;;;;55.47;31.98;;;;;;;4.19;76.50;101937.41;4975720;28;20031;-73
2022/12/19 06:55:48;;;;;;;50.25;28.65;;;;;;;4.07;77.14;101946.44;4975816;28;20073;-74
2022/12/19 06:58:14;;;;;;;50.17;29.60;;;;;;;3.76;78.06;101945.66;4973817;28;20042;-74
2022/12/19 07:00:40;;;;;;;52.15;29.83;;;;;;;3.70;78.42;101941.72;4974236;28;20106;-74
2022/12/19 07:03:12;;;;;;;47.85;29.70;;;;;;;3.81;78.04;101932.84;4962476;28;20031;-74
2022/12/19 07:05:39;;;;;;;47.13;28.85;;;;;;;3.89;77.03;101941.81;4975933;28;20517;-74
2022/12/19 07:08:07;;;;;;;50.90;29.80;;;;;;;4.17;76.44;101940.19;4973538;28;20027;-73
2022/12/19 07:10:33;;;;;;;49.25;28.23;;;;;;;4.25;76.00;101947.44;4975441;28;20515;-74
2022/12/19 07:12:59;;;;;;;46.92;28.30;;;;;;;4.18;75.87;101951.63;4973538;28;20066;-74
2022/12/19 07:15:26;;;;;;;46.90;27.80;;;;;;;4.10;76.01;101954.09;4974951;28;20049;-75
2022/12/19 07:17:52;;;;;;;48.90;29.20;;;;;;;4.06;76.02;101952.72;4975228;28;20038;-75
2022/12/19 07:20:20;;;;;;;46.50;27.42;;;;;;;4.06;75.79;101948.25;4956531;28;20800;-74
2022/12/19 07:22:48;;;;;;;49.10;27.42;;;;;;;4.33;74.88;101958.22;4973785;28;20090;-74
2022/12/19 07:25:16;;;;;;;50.85;28.35;;;;;;;4.47;74.08;101968.41;4974955;28;20098;-74
2022/12/19 07:27:43;;;;;;;50.88;29.77;;;;;;;4.42;74.35;101977.75;4974864;28;20546;-74
2022/12/19 07:30:10;;;;;;;51.17;27.77;;;;;;;4.05;75.33;101970.41;4974671;28;20039;-74
2022/12/19 07:32:38;;;;;;;59.45;32.30;;;;;;;3.99;75.72;101968.31;4956390;28;20023;-74
2022/12/19 07:35:08;;;;;;;61.80;34.17;;;;;;;4.00;76.00;101969.13;4957551;28;20494;-75
2022/12/19 07:37:34;;;;;;;62.00;33.50;;;;;;;4.31;75.41;101965.44;4974826;28;20094;-74
2022/12/19 07:40:01;;;;;;;58.08;33.80;;;;;;;4.25;75.73;101963.34;4974640;28;20523;-74
2022/12/19 07:42:27;;;;;;;60.28;35.97;;;;;;;3.97;76.92;101957.84;4974952;28;20027;-74
2022/12/19 07:44:53;;;;;;;57.83;34.97;;;;;;;4.09;76.72;101963.03;4974792;28;20042;-74
2022/12/19 07:47:19;;;;;;;63.22;35.28;;;;;;;3.95;76.80;101956.31;4974347;28;20037;-74
2022/12/19 07:49:46;;;;;;;60.47;34.40;;;;;;;3.84;77.63;101954.63;4974269;28;20031;-74
2022/12/19 07:52:12;;;;;;;62.60;34.28;;;;;;;3.79;77.58;101953.34;4974559;28;20109;-74
2022/12/19 07:54:39;;;;;;;61.08;34.75;;;;;;;3.70;78.27;101949.69;4974392;28;20023;-74
2022/12/19 07:57:06;;;;;;;63.67;35.17;;;;;;;3.65;78.93;101957.19;4974560;28;20026;-74
2022/12/19 07:59:32;;;;;;;67.97;37.33;;;;;;;3.64;78.69;101952.88;4974160;28;20113;-74
2022/12/19 08:01:58;;;;;;;54.45;33.83;;;;;;;3.73;78.56;101952.06;4974365;28;20480;-74
2022/12/19 08:04:24;;;;;;;61.63;36.22;;;;;;;3.55;79.36;101949.19;4974141;28;20034;-74
2022/12/19 08:06:51;;;;;;;51.92;32.95;;;;;;;3.72;78.59;101958.34;4974293;28;20115;-74
2022/12/19 08:09:17;;;;;;;60.85;34.17;;;;;;;3.70;78.42;101968.22;4974115;28;20027;-74
2022/12/19 08:11:43;;;;;;;61.95;33.47;;;;;;;3.71;78.58;101975.19;4974424;28;20038;-74
2022/12/19 08:14:09;;;;;;;53.35;31.50;;;;;;;3.73;78.11;101965.31;4974009;28;20046;-74
2022/12/19 08:16:36;;;;;;;53.15;30.67;;;;;;;3.81;78.19;101962.81;4974328;28;20031;-74
2022/12/19 08:19:03;;;;;;;47.25;28.23;;;;;;;3.69;78.14;101966.53;4956250;28;20115;-74
2022/12/19 08:21:29;;;;;;;51.33;28.88;;;;;;;3.61;77.91;101969.88;4974020;28;20031;-74
2022/12/19 08:23:55;;;;;;;51.95;30.65;;;;;;;3.52;78.92;101975.94;4973997;28;20034;-74
2022/12/19 08:26:25;;;;;;;52.08;31.95;;;;;;;3.31;80.14;101968.03;4973093;28;20050;-74
2022/12/19 08:28:56;;;;;;;54.30;31.20;;;;;;;3.50;79.95;101982.31;4971909;28;20399;-74
2022/12/19 08:31:26;;;;;;;55.15;32.33;;;;;;;3.42;80.08;101983.84;4954605;29;20027;-74
2022/12/19 08:33:54;;;;;;;58.08;32.83;;;;;;;3.46;80.22;101983.59;4961579;28;20121;-74
2022/12/19 08:36:21;;;;;;;54.65;31.33;;;;;;;3.58;79.62;101979.88;4973236;28;20031;-74
2022/12/19 08:38:48;;;;;;;57.03;32.17;;;;;;;3.79;79.10;101982.47;4973522;28;20041;-74
2022/12/19 08:41:16;;;;;;;64.82;35.58;;;;;;;3.83;78.89;101979.44;4973380;28;20388;-74
2022/12/19 08:43:47;;;;;;;66.63;37.97;;;;;;;3.80;79.41;101994.75;4973717;28;20369;-74
2022/12/19 08:46:14;;;;;;;70.90;39.28;;;;;;;3.76;79.67;101993.31;4973602;28;20027;-74
2022/12/19 08:48:42;;;;;;;73.75;39.05;;;;;;;3.87;79.87;101987.94;4973327;28;20057;-74
2022/12/19 08:51:11;;;;;;;74.63;41.00;;;;;;;3.52;81.87;101991.81;4973495;28;20644;-74
2022/12/19 08:53:40;;;;;;;72.25;39.50;;;;;;;3.49;82.41;102002.66;4956123;28;20027;-74
2022/12/19 08:56:20;;;;;;;67.95;37.47;;;;;;;3.65;81.89;102013.63;4973046;28;20122;-74
2022/12/19 08:58:47;;;;;;;69.50;39.60;;;;;;;3.59;82.13;102013.31;4972890;28;20023;-74
2022/12/19 09:01:19;;;;;;;71.55;39.85;;;;;;;3.56;82.23;102018.88;4973376;28;20404;-74
2022/12/19 09:03:46;;;;;;;72.07;39.90;;;;;;;3.64;82.50;102030.47;4973225;28;20030;-74
2022/12/19 09:06:14;;;;;;;76.82;40.95;;;;;;;3.47;83.55;102009.91;4973217;28;20375;-74
2022/12/19 09:08:42;;;;;;;82.82;44.85;;;;;;;3.26;85.01;102017.03;4973154;28;20098;-74
2022/12/19 09:11:13;;;;;;;86.80;46.22;;;;;;;3.52;84.75;102013.00;4973089;28;20424;-74
2022/12/19 09:13:41;;;;;;;95.07;51.17;;;;;;;3.26;86.00;102019.66;4973222;28;20100;-73
2022/12/19 09:16:12;;;;;;;100.78;54.03;;;;;;;3.19;87.28;102016.69;4973325;28;20058;-73
2022/12/19 09:18:38;;;;;;;107.82;54.03;;;;;;;3.38;86.98;102029.22;4973111;28;20038;-73
2022/12/19 09:21:05;;;;;;;105.50;54.20;;;;;;;3.42;86.79;102028.81;4973046;28;20023;-73
2022/12/19 09:23:32;;;;;;;109.68;56.70;;;;;;;3.44;87.00;102040.13;4973315;28;20034;-73
2022/12/19 09:26:04;;;;;;;108.47;55.30;;;;;;;3.39;86.93;102050.28;4969986;28;20423;-73
2022/12/19 09:28:31;;;;;;;111.50;57.15;;;;;;;3.44;87.59;102058.66;4960036;28;20110;-73
2022/12/19 09:30:59;;;;;;;115.38;57.33;;;;;;;3.39;87.33;102052.91;4969100;28;21097;-74
2022/12/19 09:33:27;;;;;;;107.00;56.72;;;;;;;3.59;87.50;102060.97;4970504;28;20096;-74
2022/12/19 09:35:55;;;;;;;108.85;54.00;;;;;;;3.47;87.58;102067.31;4971215;28;20368;-73
2022/12/19 09:38:22;;;;;;;115.43;60.78;;;;;;;3.47;88.50;102072.59;4971583;28;20134;-74
2022/12/19 09:40:57;;;;;;;114.20;58.55;;;;;;;3.74;87.41;102080.84;4971167;28;20162;-74
2022/12/19 09:43:26;;;;;;;106.35;57.95;;;;;;;3.72;86.83;102077.50;4971645;28;20078;-74
2022/12/19 09:46:02;;;;;;;115.47;59.63;;;;;;;3.91;86.38;102077.59;4971588;28;20031;-73
2022/12/19 09:48:28;;;;;;;112.13;59.70;;;;;;;3.82;86.70;102078.38;4972702;28;20058;-73
2022/12/19 09:51:02;;;;;;;116.80;60.08;;;;;;;3.71;87.20;102075.81;4973086;28;20510;-74
2022/12/19 09:53:35;;;;;;;114.00;59.55;;;;;;;3.91;86.95;102071.47;4973522;28;20027;-73
2022/12/19 09:56:02;;;;;;;116.78;59.67;;;;;;;3.86;87.23;102073.66;4972614;28;20069;-73
2022/12/19 09:58:40;;;;;;;112.63;61.45;;;;;;;3.90;87.03;102075.91;4972762;28;20371;-73
2022/12/19 10:01:21;;;;;;;117.72;59.95;;;;;;;3.99;86.65;102068.97;4972777;28;20531;-73
2022/12/19 10:03:59;;;;;;;119.88;60.15;;;;;;;3.83;87.43;102080.06;4972405;28;20023;-73
2022/12/19 10:06:25;;;;;;;115.60;60.58;;;;;;;3.76;88.00;102086.84;4972908;28;20026;-74
2022/12/19 10:08:52;;;;;;;115.15;62.50;;;;;;;3.79;87.90;102091.88;4972687;28;20114;-74
2022/12/19 10:11:59;;;;;;;119.22;62.95;;;;;;;4.00;87.38;102109.53;4975153;28;20034;-74
2022/12/19 10:15:07;;;;;;;113.05;58.78;;;;;;;4.12;86.82;102113.81;4976320;28;20033;-73
2022/12/19 10:18:04;;;;;;;111.05;57.45;;;;;;;4.04;86.96;102116.25;4955921;28;20042;-73
2022/12/19 10:20:40;;;;;;;114.13;58.45;;;;;;;4.13;86.19;102123.44;4963901;28;20041;-73
2022/12/19 10:23:44;;;;;;;112.13;60.35;;;;;;;4.14;85.67;102125.09;4976154;28;20035;-74
2022/12/19 10:26:22;;;;;;;108.78;57.47;;;;;;;4.14;85.99;102133.06;4971586;28;20035;-73
2022/12/19 10:29:16;;;;;;;110.72;57.15;;;;;;;4.06;85.20;102122.28;4956717;29;20023;-74
2022/12/19 10:31:54;;;;;;;102.93;56.35;;;;;;;4.06;85.91;102123.13;4956902;29;20083;-74
2022/12/19 10:34:44;;;;;;;107.03;53.55;;;;;;;4.24;85.23;102118.03;4956847;29;20389;-74
2022/12/19 10:37:30;;;;;;;114.00;56.85;;;;;;;4.33;84.67;102125.19;4956268;28;20074;-73
2022/12/19 10:40:02;;;;;;;;;;;;;;;3.95;85.59;102117.91;4956814;29;20030;-74
2022/12/19 10:42:48;;;;;;;115.72;60.25;;;;;;;3.83;86.41;102122.44;4975298;28;19914;-74
2022/12/19 10:45:20;;;;;;;113.35;58.78;;;;;;;3.64;88.10;102114.38;4975875;28;20559;-74
2022/12/19 10:47:54;;;;;;;103.20;55.60;;;;;;;3.91;86.70;102119.97;4965215;28;20027;-74
2022/12/19 10:50:24;;;;;;;119.72;61.47;;;;;;;3.79;87.31;102126.31;4975718;28;20037;-74
2022/12/19 10:53:10;;;;;;;116.05;59.78;;;;;;;3.78;86.62;102124.66;4975742;28;20030;-74
2022/12/19 10:55:39;;;;;;;;;;;;;;;3.88;86.85;102120.22;4975732;28;20038;-74
2022/12/19 10:58:25;;;;;;;116.63;59.00;;;;;;;3.82;86.83;102127.84;4975379;28;19976;-74
2022/12/19 11:01:12;;;;;;;121.93;62.25;;;;;;;3.68;87.48;102129.88;4975683;28;20027;-74
2022/12/19 11:03:45;;;;;;;123.05;61.38;;;;;;;3.63;87.89;102133.88;4975788;28;20030;-74
2022/12/19 11:06:43;;;;;;;117.63;59.05;;;;;;;3.83;87.14;102126.88;4975594;28;20050;-73
2022/12/19 11:09:22;;;;;;;121.22;60.90;;;;;;;3.67;87.63;102127.38;4975063;28;20629;-74
2022/12/19 11:12:00;;;;;;;116.95;58.22;;;;;;;3.73;87.40;102131.31;4975408;28;20092;-74
2022/12/19 11:14:29;;;;;;;104.88;52.83;;;;;;;4.02;86.59;102134.13;4975467;28;20022;-74
2022/12/19 11:16:55;;;;;;;112.18;58.28;;;;;;;3.84;86.94;102137.38;4974914;28;20023;-73
2022/12/19 11:19:26;;;;;;;114.00;57.30;;;;;;;4.01;86.56;102137.75;4974737;28;20030;-74
2022/12/19 11:21:55;;;;;;;114.47;55.08;;;;;;;3.97;86.53;102138.00;4974664;28;20027;-74
2022/12/19 11:24:35;;;;;;;110.20;56.00;;;;;;;3.98;85.81;102144.97;4975125;28;20803;-73
2022/12/19 11:27:02;;;;;;;112.55;54.15;;;;;;;3.97;86.52;102145.09;4966248;28;20046;-73
2022/12/19 11:29:47;;;;;;;114.68;58.40;;;;;;;4.06;86.49;102144.31;4974764;28;20372;-73
2022/12/19 11:32:36;;;;;;;113.17;57.27;;;;;;;4.09;86.18;102143.22;4972483;28;20391;-73
2022/12/19 11:35:13;;;;;;;114.78;57.28;;;;;;;3.90;86.58;102139.50;4974168;28;20050;-74
2022/12/19 11:37:54;;;;;;;108.57;54.95;;;;;;;3.93;87.20;102141.84;4971515;28;20089;-73
2022/12/19 11:40:23;;;;;;;114.93;58.80;;;;;;;3.89;87.19;102147.56;4972724;28;20039;-73
2022/12/19 11:43:12;;;;;;;112.85;58.15;;;;;;;3.85;87.13;102141.69;4971308;28;20447;-74